sensor_id;sensor_type;location;lat;lon;timestamp;P1;durP1;ratioP1;P2;durP2;ratioP2
64826;SDS011;51265;53.972;12.286;2024-03-23T00:52:29;28.80;;;5.93;;
64826;SDS011;51265;53.972;12.286;2024-03-23T00:54:56;23.30;;;4.82;;
64826;SDS011;51265;53.972;12.286;2024-03-23T00:57:22;31.35;;;6.43;;
64826;SDS011;51265;53.972;12.286;2024-03-23T00:59:48;27.05;;;5.60;;
64826;SDS011;51265;53.972;12.286;2024-03-23T01:02:14;30.58;;;5.72;;
64826;SDS011;51265;53.972;12.286;2024-03-23T01:04:40;31.23;;;6.65;;
64826;SDS011;51265;53.972;12.286;2024-03-23T01:07:07;34.17;;;6.40;;
64826;SDS011;51265;53.972;12.286;2024-03-23T01:09:33;36.83;;;5.05;;
64826;SDS011;51265;53.972;12.286;2024-03-23T01:11:59;26.05;;;5.80;;
64826;SDS011;51265;53.972;12.286;2024-03-23T01:14:26;18.92;;;5.90;;
64826;SDS011;51265;53.972;12.286;2024-03-23T01:16:52;30.27;;;6.15;;
64826;SDS011;51265;53.972;12.286;2024-03-23T01:19:18;25.98;;;5.70;;
64826;SDS011;51265;53.972;12.286;2024-03-23T01:21:44;24.15;;;4.80;;
64826;SDS011;51265;53.972;12.286;2024-03-23T01:24:11;33.03;;;6.70;;
64826;SDS011;51265;53.972;12.286;2024-03-23T01:26:37;22.13;;;4.82;;
64826;SDS011;51265;53.972;12.286;2024-03-23T01:29:03;25.40;;;4.88;;
64826;SDS011;51265;53.972;12.286;2024-03-23T01:31:30;27.23;;;4.72;;
64826;SDS011;51265;53.972;12.286;2024-03-23T01:33:56;31.60;;;6.22;;
64826;SDS011;51265;53.972;12.286;2024-03-23T01:36:22;28.80;;;5.78;;
64826;SDS011;51265;53.972;12.286;2024-03-23T01:38:48;23.20;;;5.32;;
64826;SDS011;51265;53.972;12.286;2024-03-23T01:41:15;21.58;;;5.18;;
64826;SDS011;51265;53.972;12.286;2024-03-23T01:43:41;38.10;;;5.55;;
64826;SDS011;51265;53.972;12.286;2024-03-23T01:46:07;25.13;;;5.20;;
64826;SDS011;51265;53.972;12.286;2024-03-23T01:48:33;25.42;;;6.07;;
64826;SDS011;51265;53.972;12.286;2024-03-23T01:51:00;24.73;;;5.20;;
64826;SDS011;51265;53.972;12.286;2024-03-23T01:53:26;32.13;;;5.10;;
64826;SDS011;51265;53.972;12.286;2024-03-23T01:55:53;24.95;;;5.10;;
64826;SDS011;51265;53.972;12.286;2024-03-23T01:58:20;25.00;;;5.22;;
64826;SDS011;51265;53.972;12.286;2024-03-23T02:00:46;24.80;;;5.43;;
64826;SDS011;51265;53.972;12.286;2024-03-23T02:03:22;25.75;;;5.40;;
64826;SDS011;51265;53.972;12.286;2024-03-23T02:05:50;23.40;;;4.55;;
64826;SDS011;51265;53.972;12.286;2024-03-23T02:08:18;32.78;;;5.47;;
64826;SDS011;51265;53.972;12.286;2024-03-23T02:10:46;22.48;;;5.40;;
64826;SDS011;51265;53.972;12.286;2024-03-23T02:13:14;29.63;;;5.75;;
64826;SDS011;51265;53.972;12.286;2024-03-23T02:15:40;26.95;;;5.20;;
64826;SDS011;51265;53.972;12.286;2024-03-23T02:18:09;39.45;;;6.20;;
64826;SDS011;51265;53.972;12.286;2024-03-23T02:20:36;33.17;;;6.07;;
64826;SDS011;51265;53.972;12.286;2024-03-23T02:23:04;28.42;;;5.05;;
64826;SDS011;51265;53.972;12.286;2024-03-23T02:25:32;25.83;;;6.05;;
64826;SDS011;51265;53.972;12.286;2024-03-23T02:27:59;26.15;;;5.38;;
64826;SDS011;51265;53.972;12.286;2024-03-23T02:30:26;27.15;;;5.50;;
64826;SDS011;51265;53.972;12.286;2024-03-23T02:32:52;24.88;;;4.85;;
64826;SDS011;51265;53.972;12.286;2024-03-23T02:35:18;28.77;;;4.60;;
64826;SDS011;51265;53.972;12.286;2024-03-23T02:37:46;24.52;;;5.20;;
64826;SDS011;51265;53.972;12.286;2024-03-23T02:40:13;27.48;;;4.60;;
64826;SDS011;51265;53.972;12.286;2024-03-23T02:42:39;30.77;;;4.68;;
64826;SDS011;51265;53.972;12.286;2024-03-23T02:45:05;26.85;;;4.35;;
64826;SDS011;51265;53.972;12.286;2024-03-23T02:47:31;34.75;;;5.05;;
64826;SDS011;51265;53.972;12.286;2024-03-23T02:49:58;19.67;;;4.68;;
64826;SDS011;51265;53.972;12.286;2024-03-23T02:52:24;34.40;;;4.18;;
64826;SDS011;51265;53.972;12.286;2024-03-23T02:54:51;24.35;;;4.55;;
64826;SDS011;51265;53.972;12.286;2024-03-23T02:57:17;31.08;;;4.75;;
64826;SDS011;51265;53.972;12.286;2024-03-23T02:59:44;37.08;;;5.25;;
64826;SDS011;51265;53.972;12.286;2024-03-23T03:02:11;22.83;;;4.30;;
64826;SDS011;51265;53.972;12.286;2024-03-23T03:04:37;26.80;;;4.72;;
64826;SDS011;51265;53.972;12.286;2024-03-23T03:07:03;16.05;;;3.65;;
64826;SDS011;51265;53.972;12.286;2024-03-23T03:09:30;26.50;;;4.45;;
64826;SDS011;51265;53.972;12.286;2024-03-23T03:11:56;24.17;;;4.78;;
64826;SDS011;51265;53.972;12.286;2024-03-23T03:14:22;34.90;;;5.28;;
64826;SDS011;51265;53.972;12.286;2024-03-23T03:16:49;23.90;;;5.03;;
64826;SDS011;51265;53.972;12.286;2024-03-23T03:19:15;31.63;;;5.72;;
64826;SDS011;51265;53.972;12.286;2024-03-23T03:21:42;31.33;;;6.13;;
64826;SDS011;51265;53.972;12.286;2024-03-23T03:24:08;32.30;;;4.70;;
64826;SDS011;51265;53.972;12.286;2024-03-23T03:26:34;29.13;;;4.63;;
64826;SDS011;51265;53.972;12.286;2024-03-23T03:29:02;33.63;;;5.30;;
64826;SDS011;51265;53.972;12.286;2024-03-23T03:31:29;24.65;;;4.57;;
64826;SDS011;51265;53.972;12.286;2024-03-23T03:33:55;32.85;;;5.72;;
64826;SDS011;51265;53.972;12.286;2024-03-23T03:36:21;23.52;;;4.20;;
64826;SDS011;51265;53.972;12.286;2024-03-23T03:38:47;21.80;;;4.75;;
64826;SDS011;51265;53.972;12.286;2024-03-23T03:41:14;28.08;;;3.97;;
64826;SDS011;51265;53.972;12.286;2024-03-23T03:43:40;20.05;;;3.72;;
64826;SDS011;51265;53.972;12.286;2024-03-23T03:46:07;27.00;;;4.65;;
64826;SDS011;51265;53.972;12.286;2024-03-23T03:48:34;23.00;;;4.15;;
64826;SDS011;51265;53.972;12.286;2024-03-23T03:51:00;20.33;;;4.20;;
64826;SDS011;51265;53.972;12.286;2024-03-23T03:53:26;28.40;;;4.45;;
64826;SDS011;51265;53.972;12.286;2024-03-23T03:55:52;26.52;;;4.57;;
64826;SDS011;51265;53.972;12.286;2024-03-23T03:58:19;34.33;;;4.60;;
64826;SDS011;51265;53.972;12.286;2024-03-23T04:00:45;32.80;;;6.78;;
64826;SDS011;51265;53.972;12.286;2024-03-23T04:03:11;29.00;;;5.10;;
64826;SDS011;51265;53.972;12.286;2024-03-23T04:05:37;23.67;;;4.97;;
64826;SDS011;51265;53.972;12.286;2024-03-23T04:08:05;28.08;;;4.55;;
64826;SDS011;51265;53.972;12.286;2024-03-23T04:10:33;20.77;;;4.18;;
64826;SDS011;51265;53.972;12.286;2024-03-23T04:13:00;28.90;;;4.75;;
64826;SDS011;51265;53.972;12.286;2024-03-23T04:15:27;32.17;;;4.43;;
64826;SDS011;51265;53.972;12.286;2024-03-23T04:17:53;28.92;;;5.20;;
64826;SDS011;51265;53.972;12.286;2024-03-23T04:20:19;45.30;;;5.57;;
64826;SDS011;51265;53.972;12.286;2024-03-23T04:22:45;27.55;;;4.82;;
64826;SDS011;51265;53.972;12.286;2024-03-23T04:25:13;34.40;;;4.65;;
64826;SDS011;51265;53.972;12.286;2024-03-23T04:27:39;25.30;;;4.97;;
64826;SDS011;51265;53.972;12.286;2024-03-23T04:30:06;28.45;;;4.68;;
64826;SDS011;51265;53.972;12.286;2024-03-23T04:32:37;34.13;;;4.78;;
64826;SDS011;51265;53.972;12.286;2024-03-23T04:35:04;17.80;;;3.88;;
64826;SDS011;51265;53.972;12.286;2024-03-23T04:37:35;32.80;;;5.28;;
64826;SDS011;51265;53.972;12.286;2024-03-23T04:40:02;22.45;;;4.00;;
64826;SDS011;51265;53.972;12.286;2024-03-23T04:42:30;22.25;;;4.10;;
64826;SDS011;51265;53.972;12.286;2024-03-23T04:44:57;30.98;;;4.85;;
64826;SDS011;51265;53.972;12.286;2024-03-23T04:47:24;34.08;;;5.25;;
64826;SDS011;51265;53.972;12.286;2024-03-23T04:49:50;26.17;;;4.32;;
64826;SDS011;51265;53.972;12.286;2024-03-23T04:52:17;39.67;;;5.32;;
64826;SDS011;51265;53.972;12.286;2024-03-23T04:54:43;32.60;;;4.97;;
64826;SDS011;51265;53.972;12.286;2024-03-23T04:57:11;26.90;;;4.95;;
64826;SDS011;51265;53.972;12.286;2024-03-23T04:59:37;26.45;;;4.32;;
64826;SDS011;51265;53.972;12.286;2024-03-23T05:02:04;30.50;;;4.68;;
64826;SDS011;51265;53.972;12.286;2024-03-23T05:04:30;29.77;;;4.85;;
64826;SDS011;51265;53.972;12.286;2024-03-23T05:06:58;17.55;;;3.58;;
64826;SDS011;51265;53.972;12.286;2024-03-23T05:09:24;23.30;;;4.20;;
64826;SDS011;51265;53.972;12.286;2024-03-23T05:11:56;23.15;;;5.82;;
64826;SDS011;51265;53.972;12.286;2024-03-23T05:14:23;26.15;;;4.22;;
64826;SDS011;51265;53.972;12.286;2024-03-23T05:16:49;17.10;;;3.08;;
64826;SDS011;51265;53.972;12.286;2024-03-23T05:19:15;26.05;;;3.72;;
64826;SDS011;51265;53.972;12.286;2024-03-23T05:21:41;29.75;;;4.07;;
64826;SDS011;51265;53.972;12.286;2024-03-23T05:24:08;22.45;;;4.07;;
64826;SDS011;51265;53.972;12.286;2024-03-23T05:26:34;24.08;;;4.30;;
64826;SDS011;51265;53.972;12.286;2024-03-23T05:29:02;31.50;;;5.38;;
64826;SDS011;51265;53.972;12.286;2024-03-23T05:31:29;27.25;;;4.43;;
64826;SDS011;51265;53.972;12.286;2024-03-23T05:33:57;29.77;;;4.35;;
64826;SDS011;51265;53.972;12.286;2024-03-23T05:36:24;31.50;;;4.88;;
64826;SDS011;51265;53.972;12.286;2024-03-23T05:38:50;29.20;;;4.72;;
64826;SDS011;51265;53.972;12.286;2024-03-23T05:41:16;26.58;;;4.05;;
64826;SDS011;51265;53.972;12.286;2024-03-23T05:43:43;28.65;;;4.28;;
64826;SDS011;51265;53.972;12.286;2024-03-23T05:46:09;35.75;;;4.95;;
64826;SDS011;51265;53.972;12.286;2024-03-23T05:48:36;28.30;;;4.63;;
64826;SDS011;51265;53.972;12.286;2024-03-23T05:51:03;30.73;;;5.18;;
64826;SDS011;51265;53.972;12.286;2024-03-23T05:53:29;40.00;;;5.40;;
64826;SDS011;51265;53.972;12.286;2024-03-23T05:56:02;25.27;;;4.72;;
64826;SDS011;51265;53.972;12.286;2024-03-23T05:58:32;27.98;;;4.70;;
64826;SDS011;51265;53.972;12.286;2024-03-23T06:01:02;27.45;;;4.85;;
64826;SDS011;51265;53.972;12.286;2024-03-23T06:03:28;24.08;;;4.30;;
64826;SDS011;51265;53.972;12.286;2024-03-23T06:05:55;18.67;;;4.03;;
64826;SDS011;51265;53.972;12.286;2024-03-23T06:08:22;22.13;;;4.28;;
64826;SDS011;51265;53.972;12.286;2024-03-23T06:10:50;20.73;;;4.57;;
64826;SDS011;51265;53.972;12.286;2024-03-23T06:13:17;22.02;;;4.82;;
64826;SDS011;51265;53.972;12.286;2024-03-23T06:15:43;25.63;;;4.82;;
64826;SDS011;51265;53.972;12.286;2024-03-23T06:18:11;30.50;;;4.43;;
64826;SDS011;51265;53.972;12.286;2024-03-23T06:20:38;21.50;;;4.50;;
64826;SDS011;51265;53.972;12.286;2024-03-23T06:23:05;25.45;;;4.82;;
64826;SDS011;51265;53.972;12.286;2024-03-23T06:25:31;19.40;;;4.57;;
64826;SDS011;51265;53.972;12.286;2024-03-23T06:27:57;20.95;;;4.18;;
64826;SDS011;51265;53.972;12.286;2024-03-23T06:30:29;31.33;;;4.60;;
64826;SDS011;51265;53.972;12.286;2024-03-23T06:32:55;28.20;;;4.53;;
64826;SDS011;51265;53.972;12.286;2024-03-23T06:35:21;27.10;;;4.80;;
64826;SDS011;51265;53.972;12.286;2024-03-23T06:37:47;35.55;;;5.45;;
64826;SDS011;51265;53.972;12.286;2024-03-23T06:40:14;25.80;;;4.85;;
64826;SDS011;51265;53.972;12.286;2024-03-23T06:42:42;30.38;;;5.80;;
64826;SDS011;51265;53.972;12.286;2024-03-23T06:45:08;34.47;;;6.28;;
64826;SDS011;51265;53.972;12.286;2024-03-23T06:47:35;30.38;;;6.32;;
64826;SDS011;51265;53.972;12.286;2024-03-23T06:50:02;21.35;;;5.25;;
64826;SDS011;51265;53.972;12.286;2024-03-23T06:52:29;29.08;;;5.90;;
64826;SDS011;51265;53.972;12.286;2024-03-23T06:54:57;34.70;;;6.50;;
64826;SDS011;51265;53.972;12.286;2024-03-23T06:57:24;29.10;;;5.22;;
64826;SDS011;51265;53.972;12.286;2024-03-23T06:59:50;28.98;;;4.93;;
64826;SDS011;51265;53.972;12.286;2024-03-23T07:02:16;18.60;;;4.60;;
64826;SDS011;51265;53.972;12.286;2024-03-23T07:04:43;22.52;;;4.70;;
64826;SDS011;51265;53.972;12.286;2024-03-23T07:07:09;33.13;;;5.97;;
64826;SDS011;51265;53.972;12.286;2024-03-23T07:09:35;21.73;;;4.45;;
64826;SDS011;51265;53.972;12.286;2024-03-23T07:12:03;26.80;;;4.70;;
64826;SDS011;51265;53.972;12.286;2024-03-23T07:14:30;22.08;;;4.60;;
64826;SDS011;51265;53.972;12.286;2024-03-23T07:16:57;30.50;;;4.32;;
64826;SDS011;51265;53.972;12.286;2024-03-23T07:19:23;20.63;;;4.20;;
64826;SDS011;51265;53.972;12.286;2024-03-23T07:21:50;30.95;;;4.55;;
64826;SDS011;51265;53.972;12.286;2024-03-23T07:24:17;28.30;;;4.43;;
64826;SDS011;51265;53.972;12.286;2024-03-23T07:26:43;30.08;;;4.82;;
64826;SDS011;51265;53.972;12.286;2024-03-23T07:29:09;36.25;;;5.07;;
64826;SDS011;51265;53.972;12.286;2024-03-23T07:31:36;24.25;;;4.85;;
64826;SDS011;51265;53.972;12.286;2024-03-23T07:34:03;25.90;;;5.20;;
64826;SDS011;51265;53.972;12.286;2024-03-23T07:36:29;19.65;;;4.18;;
64826;SDS011;51265;53.972;12.286;2024-03-23T07:38:57;24.55;;;4.45;;
64826;SDS011;51265;53.972;12.286;2024-03-23T07:41:23;32.55;;;4.68;;
64826;SDS011;51265;53.972;12.286;2024-03-23T07:43:49;18.40;;;4.60;;
64826;SDS011;51265;53.972;12.286;2024-03-23T07:46:16;17.98;;;4.57;;
64826;SDS011;51265;53.972;12.286;2024-03-23T07:48:42;22.83;;;4.78;;
64826;SDS011;51265;53.972;12.286;2024-03-23T07:51:09;31.08;;;5.10;;
64826;SDS011;51265;53.972;12.286;2024-03-23T07:53:37;27.83;;;4.68;;
64826;SDS011;51265;53.972;12.286;2024-03-23T07:56:07;25.17;;;4.65;;
64826;SDS011;51265;53.972;12.286;2024-03-23T07:58:34;22.10;;;4.10;;
64826;SDS011;51265;53.972;12.286;2024-03-23T08:01:04;35.13;;;5.38;;
64826;SDS011;51265;53.972;12.286;2024-03-23T08:03:37;22.90;;;4.63;;
64826;SDS011;51265;53.972;12.286;2024-03-23T08:06:14;21.85;;;4.25;;
64826;SDS011;51265;53.972;12.286;2024-03-23T08:08:46;19.80;;;4.47;;
64826;SDS011;51265;53.972;12.286;2024-03-23T08:11:15;19.83;;;3.90;;
64826;SDS011;51265;53.972;12.286;2024-03-23T08:13:41;22.63;;;4.20;;
64826;SDS011;51265;53.972;12.286;2024-03-23T08:16:08;24.02;;;4.45;;
64826;SDS011;51265;53.972;12.286;2024-03-23T08:18:34;20.45;;;4.35;;
64826;SDS011;51265;53.972;12.286;2024-03-23T08:21:02;22.73;;;4.00;;
64826;SDS011;51265;53.972;12.286;2024-03-23T08:23:31;24.38;;;4.40;;
64826;SDS011;51265;53.972;12.286;2024-03-23T08:26:00;22.70;;;4.88;;
64826;SDS011;51265;53.972;12.286;2024-03-23T08:28:27;19.92;;;4.38;;
64826;SDS011;51265;53.972;12.286;2024-03-23T08:30:54;21.52;;;4.22;;
64826;SDS011;51265;53.972;12.286;2024-03-23T08:33:21;24.95;;;4.30;;
64826;SDS011;51265;53.972;12.286;2024-03-23T08:35:56;24.30;;;4.85;;
64826;SDS011;51265;53.972;12.286;2024-03-23T08:38:23;20.80;;;4.10;;
64826;SDS011;51265;53.972;12.286;2024-03-23T08:40:57;23.48;;;4.65;;
64826;SDS011;51265;53.972;12.286;2024-03-23T08:43:28;23.30;;;4.22;;
64826;SDS011;51265;53.972;12.286;2024-03-23T08:46:14;19.73;;;3.88;;
64826;SDS011;51265;53.972;12.286;2024-03-23T08:48:42;23.10;;;4.28;;
64826;SDS011;51265;53.972;12.286;2024-03-23T08:51:14;20.38;;;4.30;;
64826;SDS011;51265;53.972;12.286;2024-03-23T08:53:42;24.85;;;4.03;;
64826;SDS011;51265;53.972;12.286;2024-03-23T08:56:09;17.60;;;3.60;;
64826;SDS011;51265;53.972;12.286;2024-03-23T08:58:36;26.77;;;5.03;;
64826;SDS011;51265;53.972;12.286;2024-03-23T09:03:39;22.35;;;4.65;;
64826;SDS011;51265;53.972;12.286;2024-03-23T09:06:13;20.85;;;4.10;;
64826;SDS011;51265;53.972;12.286;2024-03-23T09:08:40;21.27;;;4.68;;
64826;SDS011;51265;53.972;12.286;2024-03-23T09:11:07;18.75;;;4.68;;
64826;SDS011;51265;53.972;12.286;2024-03-23T09:13:36;17.80;;;4.05;;
64826;SDS011;51265;53.972;12.286;2024-03-23T09:16:04;18.55;;;4.50;;
64826;SDS011;51265;53.972;12.286;2024-03-23T09:18:31;19.15;;;3.33;;
64826;SDS011;51265;53.972;12.286;2024-03-23T09:20:59;22.33;;;3.90;;
64826;SDS011;51265;53.972;12.286;2024-03-23T09:23:25;21.63;;;4.05;;
64826;SDS011;51265;53.972;12.286;2024-03-23T09:25:52;16.52;;;3.95;;
64826;SDS011;51265;53.972;12.286;2024-03-23T09:28:19;19.13;;;5.13;;
64826;SDS011;51265;53.972;12.286;2024-03-23T09:30:45;23.65;;;3.80;;
64826;SDS011;51265;53.972;12.286;2024-03-23T09:33:11;19.65;;;4.65;;
64826;SDS011;51265;53.972;12.286;2024-03-23T09:38:06;15.90;;;3.70;;
64826;SDS011;51265;53.972;12.286;2024-03-23T09:40:40;19.92;;;4.20;;
64826;SDS011;51265;53.972;12.286;2024-03-23T09:43:08;19.13;;;3.85;;
64826;SDS011;51265;53.972;12.286;2024-03-23T09:45:40;21.55;;;3.95;;
64826;SDS011;51265;53.972;12.286;2024-03-23T09:48:11;17.90;;;3.25;;
64826;SDS011;51265;53.972;12.286;2024-03-23T09:50:41;18.52;;;3.75;;
64826;SDS011;51265;53.972;12.286;2024-03-23T09:53:10;17.25;;;3.88;;
64826;SDS011;51265;53.972;12.286;2024-03-23T09:55:43;19.38;;;3.17;;
64826;SDS011;51265;53.972;12.286;2024-03-23T09:58:15;17.60;;;3.88;;
64826;SDS011;51265;53.972;12.286;2024-03-23T10:00:43;16.67;;;3.25;;
64826;SDS011;51265;53.972;12.286;2024-03-23T10:03:10;18.63;;;3.70;;
64826;SDS011;51265;53.972;12.286;2024-03-23T10:05:37;17.55;;;3.72;;
64826;SDS011;51265;53.972;12.286;2024-03-23T10:10:39;18.75;;;3.13;;
64826;SDS011;51265;53.972;12.286;2024-03-23T10:13:09;15.35;;;3.15;;
64826;SDS011;51265;53.972;12.286;2024-03-23T10:15:35;16.10;;;4.10;;
64826;SDS011;51265;53.972;12.286;2024-03-23T10:18:17;16.00;;;3.33;;
64826;SDS011;51265;53.972;12.286;2024-03-23T10:20:50;15.60;;;4.20;;
64826;SDS011;51265;53.972;12.286;2024-03-23T10:23:33;20.40;;;3.10;;
64826;SDS011;51265;53.972;12.286;2024-03-23T10:26:12;13.55;;;3.42;;
64826;SDS011;51265;53.972;12.286;2024-03-23T10:28:58;13.57;;;3.28;;
64826;SDS011;51265;53.972;12.286;2024-03-23T10:31:28;14.20;;;2.75;;
64826;SDS011;51265;53.972;12.286;2024-03-23T10:33:57;12.50;;;2.65;;
64826;SDS011;51265;53.972;12.286;2024-03-23T10:36:24;13.52;;;2.63;;
64826;SDS011;51265;53.972;12.286;2024-03-23T10:38:54;13.43;;;2.50;;
64826;SDS011;51265;53.972;12.286;2024-03-23T10:41:21;12.93;;;2.67;;
64826;SDS011;51265;53.972;12.286;2024-03-23T10:43:49;8.38;;;1.83;;
64826;SDS011;51265;53.972;12.286;2024-03-23T10:46:15;6.18;;;1.90;;
64826;SDS011;51265;53.972;12.286;2024-03-23T10:48:41;8.05;;;2.10;;
64826;SDS011;51265;53.972;12.286;2024-03-23T10:51:09;8.25;;;2.22;;
64826;SDS011;51265;53.972;12.286;2024-03-23T10:53:36;11.73;;;1.95;;
64826;SDS011;51265;53.972;12.286;2024-03-23T10:56:06;7.82;;;2.25;;
64826;SDS011;51265;53.972;12.286;2024-03-23T10:58:36;9.98;;;2.38;;
64826;SDS011;51265;53.972;12.286;2024-03-23T11:01:05;8.23;;;2.13;;
64826;SDS011;51265;53.972;12.286;2024-03-23T11:03:38;9.25;;;1.92;;
64826;SDS011;51265;53.972;12.286;2024-03-23T11:06:07;5.88;;;2.17;;
64826;SDS011;51265;53.972;12.286;2024-03-23T11:08:37;7.43;;;2.38;;
64826;SDS011;51265;53.972;12.286;2024-03-23T11:11:26;9.52;;;3.00;;
64826;SDS011;51265;53.972;12.286;2024-03-23T11:13:52;105.93;;;44.47;;
64826;SDS011;51265;53.972;12.286;2024-03-23T11:16:26;46.72;;;39.63;;
64826;SDS011;51265;53.972;12.286;2024-03-23T11:19:33;11.07;;;2.30;;
64826;SDS011;51265;53.972;12.286;2024-03-23T11:22:04;10.80;;;2.05;;
64826;SDS011;51265;53.972;12.286;2024-03-23T11:24:34;4.88;;;1.75;;
64826;SDS011;51265;53.972;12.286;2024-03-23T11:27:00;6.75;;;1.48;;
64826;SDS011;51265;53.972;12.286;2024-03-23T11:29:29;11.57;;;2.25;;
64826;SDS011;51265;53.972;12.286;2024-03-23T11:31:56;13.05;;;2.08;;
64826;SDS011;51265;53.972;12.286;2024-03-23T11:34:23;7.78;;;2.15;;
64826;SDS011;51265;53.972;12.286;2024-03-23T11:36:50;9.77;;;2.17;;
64826;SDS011;51265;53.972;12.286;2024-03-23T11:39:19;6.82;;;1.85;;
64826;SDS011;51265;53.972;12.286;2024-03-23T11:41:46;7.70;;;2.00;;
64826;SDS011;51265;53.972;12.286;2024-03-23T11:44:21;8.90;;;1.75;;
64826;SDS011;51265;53.972;12.286;2024-03-23T11:46:50;6.45;;;1.67;;
64826;SDS011;51265;53.972;12.286;2024-03-23T11:49:20;7.03;;;1.58;;
64826;SDS011;51265;53.972;12.286;2024-03-23T11:51:50;5.57;;;1.90;;
64826;SDS011;51265;53.972;12.286;2024-03-23T11:54:21;28.20;;;25.95;;
64826;SDS011;51265;53.972;12.286;2024-03-23T11:57:01;7.10;;;2.78;;
64826;SDS011;51265;53.972;12.286;2024-03-23T11:59:34;10.10;;;2.30;;
64826;SDS011;51265;53.972;12.286;2024-03-23T12:02:08;11.57;;;3.00;;
64826;SDS011;51265;53.972;12.286;2024-03-23T12:04:37;10.65;;;6.00;;
64826;SDS011;51265;53.972;12.286;2024-03-23T12:07:14;9.02;;;3.50;;
64826;SDS011;51265;53.972;12.286;2024-03-23T12:09:45;37.75;;;25.77;;
64826;SDS011;51265;53.972;12.286;2024-03-23T12:12:18;12.25;;;4.60;;
64826;SDS011;51265;53.972;12.286;2024-03-23T12:14:45;8.13;;;4.40;;
64826;SDS011;51265;53.972;12.286;2024-03-23T12:17:27;6.55;;;5.00;;
64826;SDS011;51265;53.972;12.286;2024-03-23T12:19:54;10.52;;;7.28;;
64826;SDS011;51265;53.972;12.286;2024-03-23T12:22:20;4.18;;;1.10;;
64826;SDS011;51265;53.972;12.286;2024-03-23T12:24:47;5.57;;;2.67;;
64826;SDS011;51265;53.972;12.286;2024-03-23T12:27:14;7.32;;;1.40;;
64826;SDS011;51265;53.972;12.286;2024-03-23T12:29:41;4.38;;;1.13;;
64826;SDS011;51265;53.972;12.286;2024-03-23T12:32:09;4.68;;;1.80;;
64826;SDS011;51265;53.972;12.286;2024-03-23T12:34:35;5.35;;;1.25;;
64826;SDS011;51265;53.972;12.286;2024-03-23T12:37:01;5.35;;;1.10;;
64826;SDS011;51265;53.972;12.286;2024-03-23T12:39:27;4.35;;;1.38;;
64826;SDS011;51265;53.972;12.286;2024-03-23T12:41:54;5.85;;;1.48;;
64826;SDS011;51265;53.972;12.286;2024-03-23T12:44:20;5.05;;;1.00;;
64826;SDS011;51265;53.972;12.286;2024-03-23T12:46:46;7.45;;;1.48;;
64826;SDS011;51265;53.972;12.286;2024-03-23T12:49:14;6.55;;;1.23;;
64826;SDS011;51265;53.972;12.286;2024-03-23T12:51:47;6.70;;;2.22;;
64826;SDS011;51265;53.972;12.286;2024-03-23T12:54:18;4.22;;;0.80;;
64826;SDS011;51265;53.972;12.286;2024-03-23T12:56:45;1.55;;;0.50;;
64826;SDS011;51265;53.972;12.286;2024-03-23T12:59:11;4.65;;;0.60;;
64826;SDS011;51265;53.972;12.286;2024-03-23T13:01:39;2.75;;;0.93;;
64826;SDS011;51265;53.972;12.286;2024-03-23T13:04:06;4.75;;;0.98;;
64826;SDS011;51265;53.972;12.286;2024-03-23T13:06:32;6.25;;;2.60;;
64826;SDS011;51265;53.972;12.286;2024-03-23T13:09:00;5.32;;;0.98;;
64826;SDS011;51265;53.972;12.286;2024-03-23T13:11:27;4.20;;;0.90;;
64826;SDS011;51265;53.972;12.286;2024-03-23T13:13:55;8.30;;;1.40;;
64826;SDS011;51265;53.972;12.286;2024-03-23T13:16:21;6.43;;;1.55;;
64826;SDS011;51265;53.972;12.286;2024-03-23T13:18:47;8.13;;;2.50;;
64826;SDS011;51265;53.972;12.286;2024-03-23T13:21:14;4.72;;;1.23;;
64826;SDS011;51265;53.972;12.286;2024-03-23T13:23:40;5.97;;;1.00;;
64826;SDS011;51265;53.972;12.286;2024-03-23T13:26:08;4.78;;;1.20;;
64826;SDS011;51265;53.972;12.286;2024-03-23T13:28:35;3.30;;;0.70;;
64826;SDS011;51265;53.972;12.286;2024-03-23T13:31:03;3.92;;;1.10;;
64826;SDS011;51265;53.972;12.286;2024-03-23T13:33:30;5.70;;;1.30;;
64826;SDS011;51265;53.972;12.286;2024-03-23T13:35:58;5.70;;;2.13;;
64826;SDS011;51265;53.972;12.286;2024-03-23T13:38:26;4.00;;;0.90;;
64826;SDS011;51265;53.972;12.286;2024-03-23T13:40:53;4.70;;;1.50;;
64826;SDS011;51265;53.972;12.286;2024-03-23T13:43:20;3.20;;;1.42;;
64826;SDS011;51265;53.972;12.286;2024-03-23T13:45:47;2.42;;;0.95;;
64826;SDS011;51265;53.972;12.286;2024-03-23T13:48:15;4.88;;;1.90;;
64826;SDS011;51265;53.972;12.286;2024-03-23T13:50:42;2.65;;;1.40;;
64826;SDS011;51265;53.972;12.286;2024-03-23T13:53:08;2.67;;;1.88;;
64826;SDS011;51265;53.972;12.286;2024-03-23T13:55:35;3.15;;;1.85;;
64826;SDS011;51265;53.972;12.286;2024-03-23T13:58:01;3.10;;;1.55;;
64826;SDS011;51265;53.972;12.286;2024-03-23T14:00:28;2.47;;;1.58;;
64826;SDS011;51265;53.972;12.286;2024-03-23T14:02:54;2.80;;;1.65;;
64826;SDS011;51265;53.972;12.286;2024-03-23T14:05:20;4.10;;;2.00;;
64826;SDS011;51265;53.972;12.286;2024-03-23T14:07:46;3.97;;;1.80;;
64826;SDS011;51265;53.972;12.286;2024-03-23T14:10:13;3.15;;;0.90;;
64826;SDS011;51265;53.972;12.286;2024-03-23T14:12:39;5.97;;;1.40;;
64826;SDS011;51265;53.972;12.286;2024-03-23T14:15:06;4.20;;;0.70;;
64826;SDS011;51265;53.972;12.286;2024-03-23T14:17:33;2.70;;;0.80;;
64826;SDS011;51265;53.972;12.286;2024-03-23T14:19:59;3.45;;;0.77;;
64826;SDS011;51265;53.972;12.286;2024-03-23T14:22:31;3.85;;;1.40;;
64826;SDS011;51265;53.972;12.286;2024-03-23T14:24:58;3.25;;;0.90;;
64826;SDS011;51265;53.972;12.286;2024-03-23T14:27:24;2.38;;;0.77;;
64826;SDS011;51265;53.972;12.286;2024-03-23T14:29:51;4.82;;;0.63;;
64826;SDS011;51265;53.972;12.286;2024-03-23T14:32:17;4.40;;;1.00;;
64826;SDS011;51265;53.972;12.286;2024-03-23T14:34:43;5.47;;;1.08;;
64826;SDS011;51265;53.972;12.286;2024-03-23T14:37:09;3.38;;;0.93;;
64826;SDS011;51265;53.972;12.286;2024-03-23T14:39:35;4.05;;;2.45;;
64826;SDS011;51265;53.972;12.286;2024-03-23T14:42:02;1.40;;;0.65;;
64826;SDS011;51265;53.972;12.286;2024-03-23T14:44:28;5.18;;;0.70;;
64826;SDS011;51265;53.972;12.286;2024-03-23T14:46:54;3.53;;;0.98;;
64826;SDS011;51265;53.972;12.286;2024-03-23T14:49:22;1.88;;;0.65;;
64826;SDS011;51265;53.972;12.286;2024-03-23T14:51:48;0.50;;;0.40;;
64826;SDS011;51265;53.972;12.286;2024-03-23T14:54:16;2.40;;;2.20;;
64826;SDS011;51265;53.972;12.286;2024-03-23T14:56:43;2.50;;;2.30;;
64826;SDS011;51265;53.972;12.286;2024-03-23T14:59:09;2.88;;;2.47;;
64826;SDS011;51265;53.972;12.286;2024-03-23T15:01:35;4.00;;;2.40;;
64826;SDS011;51265;53.972;12.286;2024-03-23T15:04:01;2.83;;;2.20;;
64826;SDS011;51265;53.972;12.286;2024-03-23T15:06:29;2.72;;;2.17;;
64826;SDS011;51265;53.972;12.286;2024-03-23T15:08:56;4.30;;;2.67;;
64826;SDS011;51265;53.972;12.286;2024-03-23T15:11:22;5.30;;;2.80;;
64826;SDS011;51265;53.972;12.286;2024-03-23T15:13:49;3.67;;;2.78;;
64826;SDS011;51265;53.972;12.286;2024-03-23T15:16:16;4.07;;;3.17;;
64826;SDS011;51265;53.972;12.286;2024-03-23T15:18:46;3.72;;;2.50;;
64826;SDS011;51265;53.972;12.286;2024-03-23T15:21:12;3.35;;;2.30;;
64826;SDS011;51265;53.972;12.286;2024-03-23T15:23:40;2.97;;;2.30;;
64826;SDS011;51265;53.972;12.286;2024-03-23T15:26:10;3.90;;;2.40;;
64826;SDS011;51265;53.972;12.286;2024-03-23T15:28:36;3.03;;;2.40;;